Time;durP1;ratioP1;P1;durP2;ratioP2;P2;SDS_P1;SDS_P2;PMS_P1;PMS_P2;Temp;Humidity;BMP_temperature;BMP_pressure;BME280_temperature;BME280_humidity;BME280_pressure;Samples;Min_cycle;Max_cycle;Signal;HPM_P1;HPM_P2
2022/09/17 00:00:42;;;;;;;7.85;2.03;;;;;;;12.87;70.03;101276.91;6304255;22;20022;-58
2022/09/17 00:03:08;;;;;;;7.82;2.15;;;;;;;12.88;69.83;101282.22;6305977;22;20033;-58
2022/09/17 00:05:38;;;;;;;8.63;2.15;;;;;;;12.87;69.75;101286.09;6304407;22;20084;-58
2022/09/17 00:08:04;;;;;;;7.53;1.98;;;;;;;12.84;70.26;101289.41;6303630;22;20039;-58
2022/09/17 00:10:31;;;;;;;6.93;1.75;;;;;;;12.85;70.02;101293.91;6305580;22;20027;-58
2022/09/17 00:12:56;;;;;;;12.23;2.42;;;;;;;12.84;70.70;101306.13;6305578;22;20037;-58
2022/09/17 00:15:21;;;;;;;7.60;1.92;;;;;;;12.81;70.66;101295.50;6302950;22;20410;-57
2022/09/17 00:17:47;;;;;;;10.18;1.90;;;;;;;12.82;70.51;101305.56;6305699;22;20004;-58
2022/09/17 00:20:12;;;;;;;8.13;1.70;;;;;;;12.80;70.62;101302.16;6305230;22;20003;-58
2022/09/17 00:22:38;;;;;;;10.80;2.00;;;;;;;12.86;70.31;101298.38;6303569;22;20060;-58
2022/09/17 00:25:05;;;;;;;6.95;1.90;;;;;;;12.86;70.47;101303.09;6304178;22;20030;-58
2022/09/17 00:27:31;;;;;;;10.52;1.92;;;;;;;12.86;70.50;101298.38;6305422;22;19999;-58
2022/09/17 00:29:56;;;;;;;9.38;1.63;;;;;;;12.89;70.66;101296.97;6303947;22;20030;-58
2022/09/17 00:32:22;;;;;;;8.90;1.95;;;;;;;12.90;69.98;101296.75;6305658;22;20336;-58
2022/09/17 00:34:50;;;;;;;10.43;2.35;;;;;;;12.87;70.66;101302.81;6305342;22;20025;-59
2022/09/17 00:37:16;;;;;;;6.53;1.45;;;;;;;12.88;70.27;101307.28;6304103;22;20057;-58
2022/09/17 00:39:41;;;;;;;11.55;2.15;;;;;;;12.87;70.39;101310.34;6304260;22;20007;-59
2022/09/17 00:42:09;;;;;;;7.03;1.55;;;;;;;12.88;70.65;101317.59;6305470;22;20006;-59
2022/09/17 00:44:40;;;;;;;7.18;1.67;;;;;;;12.85;70.84;101315.31;6304565;22;20011;-59
2022/09/17 00:47:14;;;;;;;9.88;1.92;;;;;;;12.82;70.68;101313.91;6305176;22;20056;-59
2022/09/17 00:49:40;;;;;;;9.05;2.38;;;;;;;12.81;70.82;101312.22;6304843;22;20007;-59
2022/09/17 00:52:09;;;;;;;11.55;1.55;;;;;;;12.82;70.96;101308.34;6304022;22;20424;-59
2022/09/17 00:54:38;;;;;;;8.95;1.90;;;;;;;12.86;70.82;101315.09;6304555;22;20007;-59
2022/09/17 00:57:04;;;;;;;9.63;1.80;;;;;;;12.86;70.91;101311.47;6304361;22;20007;-59
2022/09/17 00:59:30;;;;;;;6.93;1.90;;;;;;;12.88;70.59;101321.22;6304634;22;20077;-59
2022/09/17 01:01:55;;;;;;;8.40;2.15;;;;;;;12.88;70.51;101315.66;6304584;22;20355;-59
2022/09/17 01:04:23;;;;;;;9.88;2.05;;;;;;;12.87;70.81;101327.91;6303688;22;20003;-58
2022/09/17 01:07:07;;;;;;;8.07;1.50;;;;;;;12.86;70.42;101314.25;6305729;22;20074;-59
2022/09/17 01:09:42;;;;;;;11.50;1.90;;;;;;;12.86;70.50;101317.03;6304781;22;20099;-59
2022/09/17 01:12:40;;;;;;;7.45;1.75;;;;;;;12.89;70.76;101319.28;6304096;22;20113;-59
2022/09/17 01:15:33;;;;;;;10.18;2.30;;;;;;;12.87;70.57;101315.91;6304705;22;20004;-59
2022/09/17 01:18:20;;;;;;;7.55;1.63;;;;;;;12.93;70.15;101323.22;6306949;22;20011;-59
2022/09/17 01:20:57;;;;;;;9.27;2.10;;;;;;;12.87;70.52;101322.31;6306794;22;20025;-59
2022/09/17 01:23:35;;;;;;;9.45;2.13;;;;;;;12.84;70.53;101320.06;6307306;22;20046;-59
2022/09/17 01:26:32;;;;;;;12.10;2.13;;;;;;;12.86;70.69;101329.00;6305071;22;20021;-59
2022/09/17 01:29:27;;;;;;;9.05;2.30;;;;;;;12.92;70.65;101330.75;6306668;22;20046;-59
2022/09/17 01:32:01;;;;;;;10.27;2.03;;;;;;;12.86;70.84;101339.31;6305337;22;20365;-58
2022/09/17 01:34:43;;;;;;;11.00;2.03;;;;;;;12.88;70.69;101335.16;6306777;22;20014;-59
2022/09/17 01:37:16;;;;;;;10.25;2.00;;;;;;;12.88;70.87;101332.38;6307078;22;20007;-59
2022/09/17 01:40:03;;;;;;;10.02;2.03;;;;;;;12.90;70.60;101332.13;6306473;22;20013;-59
2022/09/17 01:42:33;;;;;;;9.38;1.83;;;;;;;12.85;71.04;101340.38;6306728;22;20049;-59
2022/09/17 01:45:27;;;;;;;11.40;2.10;;;;;;;12.82;71.06;101333.41;6306502;22;20505;-59
2022/09/17 01:47:58;;;;;;;8.82;2.22;;;;;;;12.82;71.20;101338.97;6284106;22;20041;-59
2022/09/17 01:50:30;;;;;;;9.13;1.85;;;;;;;12.86;71.05;101342.94;6306301;22;20332;-59
2022/09/17 01:52:57;;;;;;;7.50;1.92;;;;;;;12.85;71.00;101341.25;6306576;22;19999;-59
2022/09/17 01:55:28;;;;;;;7.82;1.70;;;;;;;12.83;70.98;101349.00;6306041;22;20006;-60
2022/09/17 01:58:10;;;;;;;9.60;2.00;;;;;;;12.83;71.18;101351.81;6306219;22;20018;-59
2022/09/17 02:00:40;;;;;;;6.60;1.90;;;;;;;12.85;71.43;101345.97;6306035;22;20472;-59
2022/09/17 02:03:15;;;;;;;10.30;2.33;;;;;;;12.77;70.84;101345.31;6307200;22;20230;-59
2022/09/17 02:05:48;;;;;;;9.60;1.88;;;;;;;12.78;71.23;101346.16;6305523;22;20030;-59
2022/09/17 02:08:18;;;;;;;7.18;1.92;;;;;;;12.75;70.91;101339.16;6305519;22;20313;-59
2022/09/17 02:10:49;;;;;;;7.55;1.92;;;;;;;12.75;70.78;101341.09;6306359;22;20030;-59
2022/09/17 02:13:29;;;;;;;13.30;2.00;;;;;;;12.76;71.21;101342.78;6306574;22;20034;-59
2022/09/17 02:16:06;;;;;;;7.72;1.85;;;;;;;12.74;71.03;101345.81;6305357;22;20029;-59
2022/09/17 02:19:10;;;;;;;7.35;1.70;;;;;;;12.84;70.63;101338.72;6306754;22;20082;-59
2022/09/17 02:21:52;;;;;;;12.55;1.80;;;;;;;12.79;71.09;101331.13;6257835;22;20033;-59
2022/09/17 02:24:22;;;;;;;8.38;1.42;;;;;;;12.70;71.01;101332.69;6306873;22;20023;-59
2022/09/17 02:27:10;;;;;;;9.95;2.72;;;;;;;12.73;71.09;101337.72;6305236;22;20383;-59
2022/09/17 02:29:42;;;;;;;11.02;2.20;;;;;;;12.72;71.38;101348.00;6305131;22;20019;-59
2022/09/17 02:32:07;;;;;;;5.47;1.50;;;;;;;12.71;70.80;101346.34;6305450;22;20011;-59
2022/09/17 02:34:33;;;;;;;9.10;1.98;;;;;;;12.71;71.42;101348.28;6306628;22;20015;-59
2022/09/17 02:36:59;;;;;;;9.00;1.85;;;;;;;12.67;71.13;101350.72;6304795;22;20011;-59
2022/09/17 02:39:25;;;;;;;10.02;2.20;;;;;;;12.66;71.05;101348.22;6305924;22;20301;-59
2022/09/17 02:41:54;;;;;;;11.43;2.10;;;;;;;12.67;71.47;101355.47;6305667;22;20003;-59
2022/09/17 02:44:25;;;;;;;9.82;1.85;;;;;;;12.63;71.42;101357.91;6305414;22;20554;-59
2022/09/17 02:47:18;;;;;;;11.38;2.13;;;;;;;12.68;71.40;101357.13;6305095;22;20011;-59
2022/09/17 02:49:57;;;;;;;7.35;2.03;;;;;;;12.65;71.29;101355.69;6305089;22;20007;-59
2022/09/17 02:52:37;;;;;;;8.10;2.17;;;;;;;12.63;71.16;101359.84;6305437;22;20023;-59
2022/09/17 02:55:34;;;;;;;9.52;2.22;;;;;;;12.70;70.80;101366.09;6306649;22;20007;-59
2022/09/17 02:58:23;;;;;;;11.65;2.20;;;;;;;12.67;71.11;101367.44;6305683;22;20010;-59
2022/09/17 03:00:48;;;;;;;10.57;2.03;;;;;;;12.62;70.74;101367.38;6305974;22;20011;-59
2022/09/17 03:03:22;;;;;;;7.35;2.33;;;;;;;12.56;71.22;101360.00;6305161;22;20094;-59
2022/09/17 03:05:49;;;;;;;8.10;1.67;;;;;;;12.53;70.91;101354.94;6306048;22;19999;-59
2022/09/17 03:08:17;;;;;;;7.30;1.52;;;;;;;12.49;71.46;101365.75;6305189;22;20082;-59
2022/09/17 03:10:43;;;;;;;10.55;1.85;;;;;;;12.51;71.05;101357.16;6304837;22;20010;-58
2022/09/17 03:13:09;;;;;;;5.85;1.65;;;;;;;12.51;71.20;101354.38;6306228;22;20007;-59
2022/09/17 03:15:34;;;;;;;10.20;1.73;;;;;;;12.55;71.09;101349.16;6305761;22;20416;-59
2022/09/17 03:18:00;;;;;;;7.75;1.88;;;;;;;12.50;71.16;101352.69;6304666;22;20019;-59
2022/09/17 03:20:25;;;;;;;12.25;2.13;;;;;;;12.49;71.43;101356.56;6305284;22;19999;-59
2022/09/17 03:22:51;;;;;;;5.75;1.67;;;;;;;12.51;71.35;101359.94;6305434;22;20018;-59
2022/09/17 03:25:16;;;;;;;7.95;2.08;;;;;;;12.50;71.00;101356.31;6305020;22;20631;-59
2022/09/17 03:27:41;;;;;;;7.50;1.58;;;;;;;12.44;70.90;101354.53;6305971;22;20011;-59
2022/09/17 03:30:08;;;;;;;9.57;2.40;;;;;;;12.46;70.88;101357.09;6305120;22;20011;-59
2022/09/17 03:32:33;;;;;;;8.30;1.90;;;;;;;12.44;70.82;101348.13;6304337;22;20034;-59
2022/09/17 03:34:59;;;;;;;11.43;1.88;;;;;;;12.40;70.60;101350.56;6305703;22;20426;-59
2022/09/17 03:37:24;;;;;;;7.25;1.63;;;;;;;12.43;70.83;101352.84;6305114;22;20010;-60
2022/09/17 03:39:49;;;;;;;12.23;2.65;;;;;;;12.42;71.04;101348.41;6304521;22;20079;-60
2022/09/17 03:42:14;;;;;;;8.82;2.15;;;;;;;12.41;70.54;101351.41;6305595;22;20003;-59
2022/09/17 03:44:40;;;;;;;8.07;1.45;;;;;;;12.42;70.72;101356.75;6304848;22;20007;-59
2022/09/17 03:47:05;;;;;;;6.85;1.70;;;;;;;12.41;70.72;101351.41;6304682;22;20386;-59
2022/09/17 03:49:30;;;;;;;13.00;2.10;;;;;;;12.41;70.74;101352.25;6304842;22;20018;-60
2022/09/17 03:51:56;;;;;;;9.73;1.40;;;;;;;12.40;70.57;101353.34;6305880;22;20432;-60
2022/09/17 03:54:21;;;;;;;11.48;2.03;;;;;;;12.41;70.42;101351.41;6305319;22;20015;-57
2022/09/17 03:56:47;;;;;;;12.80;2.25;;;;;;;12.37;70.24;101350.22;6305417;22;19999;-57
2022/09/17 03:59:12;;;;;;;12.30;2.08;;;;;;;12.37;70.33;101356.63;6305798;22;20465;-58
2022/09/17 04:01:38;;;;;;;6.55;1.67;;;;;;;12.37;70.49;101356.63;6303909;22;20018;-58
2022/09/17 04:04:03;;;;;;;9.85;1.73;;;;;;;12.35;70.01;101358.84;6305824;22;20027;-58
2022/09/17 04:06:29;;;;;;;5.78;1.65;;;;;;;12.28;70.47;101359.00;6304958;22;20423;-58
2022/09/17 04:08:55;;;;;;;10.15;1.60;;;;;;;12.32;70.53;101364.06;6305039;22;20034;-58
2022/09/17 04:11:21;;;;;;;9.90;1.73;;;;;;;12.32;70.15;101358.50;6305370;22;20003;-58
2022/09/17 04:13:46;;;;;;;6.10;1.60;;;;;;;12.27;70.04;101368.47;6304066;22;20132;-58
2022/09/17 04:16:12;;;;;;;10.13;1.70;;;;;;;12.25;70.30;101373.41;6304386;22;19999;-58
2022/09/17 04:18:37;;;;;;;8.73;1.60;;;;;;;12.23;70.15;101370.06;6305403;22;20010;-58
2022/09/17 04:21:03;;;;;;;8.80;1.30;;;;;;;12.28;70.17;101370.13;6303316;22;19999;-59
2022/09/17 04:23:28;;;;;;;7.38;1.42;;;;;;;12.25;70.51;101375.38;6305040;22;20011;-58
2022/09/17 04:25:54;;;;;;;11.43;2.03;;;;;;;12.21;70.47;101366.66;6305179;22;20057;-58
2022/09/17 04:28:19;;;;;;;8.93;1.95;;;;;;;12.20;70.18;101378.06;6303154;22;20056;-58
2022/09/17 04:30:44;;;;;;;7.38;1.75;;;;;;;12.16;70.44;101371.31;6305465;22;20007;-58
2022/09/17 04:33:10;;;;;;;7.40;1.65;;;;;;;12.18;70.66;101369.09;6304744;22;20382;-58
2022/09/17 04:35:36;;;;;;;9.55;1.70;;;;;;;12.20;70.97;101378.06;6304222;22;20003;-58
2022/09/17 04:38:01;;;;;;;6.93;1.70;;;;;;;12.18;70.74;101375.53;6304774;22;20015;-59
2022/09/17 04:40:27;;;;;;;8.00;1.45;;;;;;;12.15;70.84;101389.94;6305923;22;20014;-59
2022/09/17 04:42:58;;;;;;;7.60;1.60;;;;;;;12.21;71.38;101386.16;6304780;22;20423;-59
2022/09/17 04:45:24;;;;;;;7.28;1.50;;;;;;;12.22;71.06;101389.78;6304928;22;20474;-59
2022/09/17 04:47:49;;;;;;;8.20;1.58;;;;;;;12.20;70.96;101389.19;6306132;22;20018;-59
2022/09/17 04:50:19;;;;;;;8.93;1.80;;;;;;;12.22;71.33;101387.88;6303528;22;19999;-59
2022/09/17 04:52:46;;;;;;;9.32;2.05;;;;;;;12.24;70.96;101382.03;6305841;22;20027;-59
2022/09/17 04:55:12;;;;;;;7.10;1.73;;;;;;;12.21;71.46;101372.22;6303757;22;20010;-59
2022/09/17 04:57:38;;;;;;;4.60;1.42;;;;;;;12.16;71.38;101376.88;6303677;22;20443;-59
2022/09/17 05:00:09;;;;;;;7.43;2.00;;;;;;;12.15;71.55;101378.81;6305050;22;20003;-59
2022/09/17 05:02:34;;;;;;;7.47;2.33;;;;;;;12.20;71.36;101378.06;6304268;22;20450;-59
2022/09/17 05:05:00;;;;;;;13.15;2.00;;;;;;;12.19;71.36;101379.16;6303962;22;20003;-59
2022/09/17 05:07:25;;;;;;;7.95;1.65;;;;;;;12.21;70.88;101379.75;6304668;22;20010;-58
2022/09/17 05:09:50;;;;;;;6.50;2.08;;;;;;;12.22;71.10;101375.84;6302902;22;20030;-59
2022/09/17 05:12:15;;;;;;;9.20;1.73;;;;;;;12.19;71.14;101385.56;6302941;22;20007;-58
2022/09/17 05:14:41;;;;;;;10.25;2.20;;;;;;;12.18;70.80;101391.38;6304454;22;20000;-58
2022/09/17 05:17:06;;;;;;;7.20;1.90;;;;;;;12.18;71.32;101395.03;6301622;22;20308;-59
2022/09/17 05:19:31;;;;;;;5.97;1.50;;;;;;;12.16;70.82;101393.56;6305711;22;20003;-59
2022/09/17 05:21:56;;;;;;;5.80;1.48;;;;;;;12.14;70.92;101390.19;6302920;22;20062;-59
2022/09/17 05:24:22;;;;;;;6.93;1.80;;;;;;;12.12;71.08;101396.00;6304450;22;20003;-58
2022/09/17 05:26:47;;;;;;;10.05;1.90;;;;;;;12.12;71.44;101409.94;6305203;22;20460;-59
2022/09/17 05:29:12;;;;;;;9.13;2.15;;;;;;;12.09;70.76;101406.78;6304340;22;20007;-59
2022/09/17 05:31:37;;;;;;;7.22;1.75;;;;;;;12.08;71.08;101407.91;6303019;22;20431;-59
2022/09/17 05:34:03;;;;;;;9.77;2.03;;;;;;;12.06;71.14;101408.13;6305133;22;20086;-59
2022/09/17 05:36:28;;;;;;;10.63;2.08;;;;;;;12.03;70.87;101409.50;6303313;22;20450;-59
2022/09/17 05:38:53;;;;;;;8.73;1.77;;;;;;;12.02;71.10;101415.28;6301566;22;20077;-59
2022/09/17 05:41:19;;;;;;;12.45;1.70;;;;;;;12.03;71.24;101412.28;6305294;22;19995;-59
2022/09/17 05:43:44;;;;;;;13.93;2.13;;;;;;;12.00;71.33;101407.22;6304654;22;20000;-59
2022/09/17 05:46:10;;;;;;;9.27;1.80;;;;;;;11.99;71.39;101410.25;6302731;22;20467;-59
2022/09/17 05:48:35;;;;;;;10.20;1.67;;;;;;;12.06;71.53;101410.06;6305186;22;20003;-60
2022/09/17 05:51:00;;;;;;;5.95;1.90;;;;;;;11.99;71.53;101407.47;6304722;22;20107;-59
2022/09/17 05:53:26;;;;;;;7.60;1.90;;;;;;;12.02;71.75;101416.16;6302237;22;20377;-58
2022/09/17 05:55:58;;;;;;;7.07;1.50;;;;;;;12.01;72.08;101416.38;6304404;22;20383;-59
2022/09/17 05:58:24;;;;;;;8.43;1.55;;;;;;;12.08;71.77;101431.00;6303670;22;20057;-59
2022/09/17 06:00:50;;;;;;;9.82;1.80;;;;;;;12.09;71.69;101438.25;6303185;22;20042;-58
2022/09/17 06:03:18;;;;;;;7.63;1.85;;;;;;;12.09;72.23;101442.97;6306220;22;19999;-59
2022/09/17 06:05:55;;;;;;;7.55;1.67;;;;;;;12.14;72.13;101449.47;6306794;22;20003;-59
2022/09/17 06:08:21;;;;;;;6.38;1.67;;;;;;;12.16;72.12;101449.25;6304290;22;19999;-59
2022/09/17 06:10:47;;;;;;;9.80;2.00;;;;;;;12.17;71.72;101456.47;6306987;22;20037;-59
2022/09/17 06:13:12;;;;;;;8.13;2.47;;;;;;;12.17;71.79;101457.31;6306422;22;20354;-59
2022/09/17 06:15:37;;;;;;;6.47;1.70;;;;;;;12.15;71.57;101453.13;6304883;22;20082;-59
2022/09/17 06:18:02;;;;;;;9.85;1.88;;;;;;;12.17;70.91;101448.97;6307435;22;20056;-59
2022/09/17 06:20:28;;;;;;;8.82;2.08;;;;;;;12.21;71.14;101441.81;6303620;22;20090;-58
2022/09/17 06:22:56;;;;;;;7.43;1.60;;;;;;;12.16;70.79;101450.06;6306603;22;20074;-59
2022/09/17 06:25:22;;;;;;;8.48;1.77;;;;;;;12.18;70.43;101441.47;6306897;22;20467;-59
2022/09/17 06:27:48;;;;;;;7.28;1.60;;;;;;;12.18;70.15;101442.34;6306442;22;20431;-59
2022/09/17 06:30:13;;;;;;;6.15;1.30;;;;;;;12.18;70.72;101445.13;6306197;22;20000;-59
2022/09/17 06:32:38;;;;;;;5.63;1.20;;;;;;;12.17;70.89;101450.91;6306669;22;20043;-59
2022/09/17 06:35:07;;;;;;;10.65;2.10;;;;;;;12.16;70.12;101446.44;6305391;22;20061;-59
2022/09/17 06:37:32;;;;;;;5.35;1.30;;;;;;;12.15;70.67;101451.19;6306345;22;20003;-59
2022/09/17 06:39:58;;;;;;;6.85;1.92;;;;;;;12.18;70.71;101442.34;6307147;22;20007;-59
2022/09/17 06:42:25;;;;;;;8.98;1.65;;;;;;;12.15;70.48;101445.63;6305406;22;20320;-59
2022/09/17 06:44:50;;;;;;;5.65;1.60;;;;;;;12.14;70.45;101440.28;6306389;22;20039;-59
2022/09/17 06:47:15;;;;;;;8.68;1.73;;;;;;;12.15;70.52;101448.41;6306690;22;20004;-59
2022/09/17 06:49:41;;;;;;;8.05;1.60;;;;;;;12.17;70.27;101446.19;6304672;22;20018;-59
2022/09/17 06:52:06;;;;;;;8.00;1.85;;;;;;;12.24;70.58;101435.75;6307139;22;20027;-58
2022/09/17 06:54:32;;;;;;;8.10;1.35;;;;;;;12.29;70.44;101446.13;6306510;22;20328;-58
2022/09/17 06:56:57;;;;;;;4.43;1.30;;;;;;;12.26;70.60;101438.28;6306340;22;20080;-59
2022/09/17 06:59:23;;;;;;;8.32;1.60;;;;;;;12.25;70.69;101431.03;6306026;22;20007;-59
2022/09/17 07:01:48;;;;;;;5.32;1.50;;;;;;;12.28;70.00;101433.31;6304920;22;20021;-59
2022/09/17 07:04:16;;;;;;;10.10;1.30;;;;;;;12.31;70.15;101445.91;6303212;22;20034;-59
2022/09/17 07:06:42;;;;;;;6.80;1.42;;;;;;;12.25;70.84;101442.16;6302841;22;20644;-59
2022/09/17 07:09:08;;;;;;;6.95;1.42;;;;;;;12.36;70.56;101444.03;6305958;22;20358;-59
2022/09/17 07:11:34;;;;;;;9.55;1.60;;;;;;;12.39;70.63;101449.13;6304249;22;20003;-59
2022/09/17 07:13:59;;;;;;;5.03;1.30;;;;;;;12.40;70.70;101450.78;6303126;22;19999;-59
2022/09/17 07:16:25;;;;;;;8.18;1.60;;;;;;;12.47;70.50;101445.91;6306141;22;20007;-58
2022/09/17 07:18:51;;;;;;;6.00;1.88;;;;;;;12.50;70.90;101456.56;6303018;22;20106;-57
2022/09/17 07:21:17;;;;;;;8.68;2.03;;;;;;;12.51;70.64;101449.03;6303828;22;20446;-58
2022/09/17 07:23:42;;;;;;;7.68;1.70;;;;;;;12.54;70.87;101456.91;6303100;22;20004;-59
2022/09/17 07:26:16;;;;;;;10.32;1.60;;;;;;;12.59;70.62;101454.19;6303964;22;20463;-59
2022/09/17 07:28:42;;;;;;;9.50;1.90;;;;;;;12.70;70.59;101456.06;6305065;22;20003;-59
2022/09/17 07:31:09;;;;;;;6.53;1.63;;;;;;;12.72;70.04;101459.44;6303269;22;20412;-58
2022/09/17 07:33:36;;;;;;;6.35;1.58;;;;;;;12.78;70.10;101457.59;6305125;22;20320;-59
2022/09/17 07:36:04;;;;;;;8.75;1.90;;;;;;;12.85;70.10;101460.19;6305281;22;20010;-59
2022/09/17 07:38:30;;;;;;;9.32;1.90;;;;;;;12.96;69.89;101459.25;6304329;22;20450;-59
2022/09/17 07:41:05;;;;;;;8.23;2.20;;;;;;;13.09;71.08;101458.94;6305795;22;20003;-59
2022/09/17 07:43:32;;;;;;;7.65;1.48;;;;;;;13.18;69.91;101459.31;6305346;22;20003;-59
2022/09/17 07:45:59;;;;;;;9.45;1.90;;;;;;;13.30;70.02;101453.69;6302773;22;20305;-59
2022/09/17 07:48:27;;;;;;;6.68;1.45;;;;;;;13.36;69.18;101452.63;6306179;22;20106;-59
2022/09/17 07:50:52;;;;;;;8.32;1.80;;;;;;;13.35;68.94;101451.78;6304197;22;20116;-58
2022/09/17 07:53:18;;;;;;;7.38;1.40;;;;;;;13.42;68.74;101451.63;6304932;22;20426;-58
2022/09/17 07:55:53;;;;;;;7.82;1.40;;;;;;;13.43;68.17;101459.72;6305516;22;20300;-59
2022/09/17 07:58:20;;;;;;;3.92;1.25;;;;;;;13.39;67.59;101455.75;6305997;22;20007;-59
2022/09/17 08:00:45;;;;;;;7.28;1.20;;;;;;;13.40;68.11;101462.16;6304396;22;20078;-59
2022/09/17 08:03:10;;;;;;;6.07;1.30;;;;;;;13.51;67.90;101452.84;6305862;22;20030;-59
2022/09/17 08:05:36;;;;;;;9.07;1.38;;;;;;;13.62;68.69;101451.06;6306273;22;20042;-59
2022/09/17 08:08:01;;;;;;;9.75;1.30;;;;;;;13.74;68.14;101454.56;6304701;22;20719;-58
2022/09/17 08:10:27;;;;;;;6.88;1.63;;;;;;;13.87;67.05;101454.19;6306326;22;20412;-59
2022/09/17 08:12:56;;;;;;;6.85;1.60;;;;;;;14.03;67.69;101452.41;6305393;22;20007;-59
2022/09/17 08:15:22;;;;;;;6.13;1.20;;;;;;;14.11;67.40;101449.16;6304184;22;20492;-59
2022/09/17 08:17:48;;;;;;;5.30;1.23;;;;;;;14.29;66.83;101450.72;6306154;22;20011;-59
2022/09/17 08:20:15;;;;;;;6.18;1.48;;;;;;;14.41;66.66;101461.72;6304416;22;20065;-59
2022/09/17 08:22:41;;;;;;;4.22;1.30;;;;;;;14.54;66.00;101452.09;6306086;22;20300;-59
2022/09/17 08:25:07;;;;;;;6.40;1.05;;;;;;;14.61;65.12;101456.38;6305564;22;20037;-59
2022/09/17 08:27:33;;;;;;;6.70;1.20;;;;;;;14.64;64.10;101452.22;6304560;22;19999;-59
2022/09/17 08:29:58;;;;;;;5.93;1.40;;;;;;;14.78;63.72;101453.47;6304052;22;20076;-59
2022/09/17 08:32:25;;;;;;;4.78;1.38;;;;;;;14.86;63.79;101452.97;6304762;22;20021;-59
2022/09/17 08:34:52;;;;;;;7.65;1.70;;;;;;;14.93;64.63;101450.78;6304788;22;20435;-59
2022/09/17 08:37:18;;;;;;;4.90;1.10;;;;;;;14.90;63.34;101450.47;6305409;22;20011;-59
2022/09/17 08:39:43;;;;;;;9.20;1.80;;;;;;;15.08;63.08;101455.63;6305822;22;20014;-58
2022/09/17 08:42:26;;;;;;;7.07;1.42;;;;;;;15.22;63.34;101464.41;6304685;22;20080;-58
2022/09/17 08:44:54;;;;;;;6.20;1.20;;;;;;;15.35;63.56;101460.28;6304973;22;20030;-58
2022/09/17 08:47:35;;;;;;;10.73;1.58;;;;;;;15.49;63.35;101466.25;6302727;22;20007;-58
2022/09/17 08:50:03;;;;;;;7.38;1.55;;;;;;;15.55;61.95;101462.34;6302928;22;20074;-58
2022/09/17 08:52:45;;;;;;;4.45;1.20;;;;;;;15.67;62.65;101460.22;6304710;22;20003;-58
2022/09/17 08:55:34;;;;;;;4.65;1.05;;;;;;;15.77;61.55;101460.28;6303004;22;20057;-58
2022/09/17 08:58:19;;;;;;;5.85;1.80;;;;;;;15.89;62.54;101462.84;6305106;22;20440;-58
2022/09/17 09:00:52;;;;;;;4.78;1.00;;;;;;;16.05;61.33;101472.13;6304111;22;20276;-58
2022/09/17 09:03:31;;;;;;;3.88;1.10;;;;;;;16.14;61.03;101464.88;6304062;22;20000;-58
2022/09/17 09:06:02;;;;;;;3.78;1.10;;;;;;;16.19;60.61;101468.53;6304534;22;20007;-58
2022/09/17 09:08:53;;;;;;;4.22;1.05;;;;;;;16.09;60.13;101462.91;6303447;22;20000;-58
2022/09/17 09:11:26;;;;;;;6.05;1.13;;;;;;;15.97;60.29;101481.06;6302230;22;20411;-58
2022/09/17 09:13:56;;;;;;;5.28;1.13;;;;;;;15.76;59.65;101492.19;6303867;22;20003;-57
2022/09/17 09:16:31;;;;;;;7.25;1.35;;;;;;;15.59;61.41;101477.50;6303545;22;20010;-58
2022/09/17 09:19:09;;;;;;;5.32;1.13;;;;;;;15.40;62.07;101477.94;6305153;22;20003;-58
2022/09/17 09:22:03;;;;;;;6.18;1.60;;;;;;;15.30;62.18;101474.25;6302281;22;20003;-58
2022/09/17 09:24:42;;;;;;;5.38;1.40;;;;;;;15.30;62.97;101477.03;6274581;22;20007;-57
2022/09/17 09:27:13;;;;;;;6.35;1.30;;;;;;;15.25;62.93;101477.00;6303288;22;20008;-57
2022/09/17 09:30:03;;;;;;;5.60;1.23;;;;;;;15.42;63.72;101475.72;6303482;22;20309;-58
2022/09/17 09:32:41;;;;;;;6.35;1.23;;;;;;;15.56;63.48;101478.91;6301573;22;20089;-58
2022/09/17 09:35:22;;;;;;;7.70;1.17;;;;;;;15.76;63.60;101478.19;6303126;22;20000;-58
2022/09/17 09:37:54;;;;;;;8.15;1.30;;;;;;;15.79;62.00;101471.19;6304670;22;20011;-57
2022/09/17 09:40:26;;;;;;;7.93;1.23;;;;;;;15.94;62.70;101476.84;6305311;22;20406;-57
2022/09/17 09:42:54;;;;;;;6.72;1.48;;;;;;;16.02;62.43;101473.50;6306473;22;20319;-57
2022/09/17 09:45:41;;;;;;;9.40;1.20;;;;;;;16.07;62.31;101478.28;6304350;22;20129;-59
2022/09/17 09:48:16;;;;;;;8.15;1.38;;;;;;;16.03;61.39;101477.16;6305429;22;20038;-59
2022/09/17 09:50:49;;;;;;;6.78;1.30;;;;;;;15.91;61.31;101471.78;6306115;22;20359;-59
2022/09/17 09:53:25;;;;;;;6.32;1.23;;;;;;;15.78;60.67;101473.13;6303385;22;20003;-59
2022/09/17 09:56:05;;;;;;;7.75;1.45;;;;;;;15.76;62.10;101485.72;6305374;22;20080;-59
2022/09/17 09:58:35;;;;;;;3.85;1.08;;;;;;;15.49;62.59;101483.03;6304920;22;20329;-59
2022/09/17 10:01:02;;;;;;;4.72;1.10;;;;;;;15.42;63.49;101486.91;6304815;22;20015;-59
2022/09/17 10:03:35;;;;;;;5.20;1.00;;;;;;;15.38;62.77;101496.94;6301405;22;20023;-60
2022/09/17 10:06:06;;;;;;;4.15;1.02;;;;;;;15.39;63.92;101484.66;6305014;22;19999;-60
2022/09/17 10:08:34;;;;;;;5.65;1.00;;;;;;;15.49;64.21;101483.03;6305575;22;20034;-59
2022/09/17 10:11:02;;;;;;;5.97;1.23;;;;;;;15.64;64.18;101485.91;6304620;22;20003;-59
2022/09/17 10:13:35;;;;;;;5.25;0.80;;;;;;;15.64;63.31;101483.97;6304541;22;20075;-59
2022/09/17 10:16:24;;;;;;;6.88;0.90;;;;;;;15.62;63.04;101485.34;6306106;22;19999;-59
2022/09/17 10:19:13;;;;;;;3.38;0.60;;;;;;;15.63;61.91;101482.25;6303568;22;20086;-59
2022/09/17 10:21:41;;;;;;;3.45;0.80;;;;;;;15.57;59.27;101483.38;6304787;22;20033;-59
2022/09/17 10:24:30;;;;;;;1.80;0.80;;;;;;;15.75;60.78;101473.69;6305004;22;20010;-59
2022/09/17 10:27:05;;;;;;;4.30;0.80;;;;;;;15.91;60.85;101478.22;6304638;22;20068;-59
2022/09/17 10:29:32;;;;;;;4.40;1.08;;;;;;;16.05;60.13;101475.78;6305921;22;20026;-59
2022/09/17 10:31:58;;;;;;;3.95;0.70;;;;;;;16.18;60.59;101466.00;6305073;22;20011;-59
2022/09/17 10:34:29;;;;;;;5.45;0.98;;;;;;;16.15;60.29;101470.22;6304901;22;20075;-59
2022/09/17 10:36:56;;;;;;;4.55;0.95;;;;;;;16.07;59.85;101467.09;6305411;22;20015;-59
2022/09/17 10:39:31;;;;;;;7.97;1.30;;;;;;;15.95;60.49;101476.59;6304224;22;20003;-59
2022/09/17 10:42:12;;;;;;;4.78;1.05;;;;;;;15.76;62.17;101486.59;6305299;22;20010;-59
2022/09/17 10:44:49;;;;;;;5.78;1.13;;;;;;;15.63;62.24;101484.22;6304783;22;20007;-59
2022/09/17 10:47:21;;;;;;;2.60;0.80;;;;;;;15.56;63.03;101476.09;6303780;22;20415;-59
2022/09/17 10:50:00;;;;;;;1.52;0.57;;;;;;;15.56;63.99;101480.81;6304778;22;20030;-59
2022/09/17 10:52:34;;;;;;;5.25;1.48;;;;;;;15.55;64.41;101484.75;6303649;22;20112;-59
2022/09/17 10:55:14;;;;;;;5.38;1.10;;;;;;;15.48;63.98;101473.78;6302609;22;20052;-59
2022/09/17 10:58:06;;;;;;;4.68;1.02;;;;;;;15.44;63.22;101476.31;6303876;22;20041;-60
2022/09/17 11:01:00;;;;;;;3.70;0.80;;;;;;;15.54;63.83;101469.06;6304212;22;20019;-60
2022/09/17 11:03:50;;;;;;;3.65;1.20;;;;;;;15.71;64.53;101472.53;6303688;22;20011;-59
2022/09/17 11:06:49;;;;;;;4.35;0.90;;;;;;;15.82;63.97;101474.28;6302508;22;20014;-58
2022/09/17 11:09:36;;;;;;;3.70;0.70;;;;;;;15.81;62.81;101463.38;6303067;22;20115;-59
2022/09/17 11:12:20;;;;;;;3.08;0.60;;;;;;;15.73;62.09;101473.13;6304008;22;20014;-58
2022/09/17 11:14:58;;;;;;;1.55;0.45;;;;;;;15.63;61.33;101459.88;6304319;22;20053;-59
2022/09/17 11:17:53;;;;;;;2.65;0.70;;;;;;;15.60;61.55;101459.56;6304442;22;20007;-58
2022/09/17 11:20:31;;;;;;;2.28;0.50;;;;;;;15.73;62.11;101456.34;6304790;22;20026;-59
2022/09/17 11:23:32;;;;;;;2.38;0.60;;;;;;;15.91;62.71;101455.00;6301828;22;20007;-59
2022/09/17 11:26:43;;;;;;;3.63;0.63;;;;;;;16.03;63.19;101457.56;6252182;22;20078;-59
2022/09/17 11:29:30;;;;;;;2.50;0.65;;;;;;;16.08;61.32;101454.78;6304297;22;20422;-59
2022/09/17 11:32:15;;;;;;;5.78;0.80;;;;;;;16.15;61.59;101450.63;6301717;22;20506;-59
2022/09/17 11:34:53;;;;;;;2.60;0.68;;;;;;;16.15;61.56;101450.63;6304654;22;20095;-59
2022/09/17 11:37:32;;;;;;;7.13;1.38;;;;;;;16.19;61.84;101451.75;6303904;22;20015;-58
2022/09/17 11:40:29;;;;;;;4.95;0.70;;;;;;;16.22;61.82;101443.88;6303918;22;20082;-59
2022/09/17 11:43:34;;;;;;;4.57;0.75;;;;;;;16.22;61.84;101443.88;6304126;22;20017;-58